Time;durP1;ratioP1;P1;durP2;ratioP2;P2;SDS_P1;SDS_P2;PMS_P1;PMS_P2;Temp;Humidity;BMP_temperature;BMP_pressure;BME280_temperature;BME280_humidity;BME280_pressure;Samples;Min_cycle;Max_cycle;Signal;HPM_P1;HPM_P2
2022/11/02 00:00:26;;;;;;;40.57;29.03;;;;;;;;;;4469863;32;20216;-87
2022/11/02 00:02:54;;;;;;;29.87;22.17;;;;;;;;;;4469257;32;20248;-88
2022/11/02 00:05:23;;;;;;;20.73;15.23;;;;;;;;;;4469406;32;20297;-87
2022/11/02 00:07:53;;;;;;;29.03;14.07;;;;;;;;;;4469171;32;20236;-87
2022/11/02 00:10:25;;;;;;;27.80;16.17;;;;;;;;;;4469553;32;20256;-87
2022/11/02 00:12:52;;;;;;;26.57;16.30;;;;;;;;;;4469059;32;20240;-87
2022/11/02 00:15:19;;;;;;;22.17;15.13;;;;;;;;;;4469209;32;20268;-87
2022/11/02 00:17:49;;;;;;;24.50;15.83;;;;;;;;;;4469149;32;20660;-87
2022/11/02 00:20:18;;;;;;;24.63;14.37;;;;;;;;;;4469001;32;20239;-87
2022/11/02 00:22:47;;;;;;;23.70;15.10;;;;;;;;;;4468851;32;20680;-87
2022/11/02 00:25:16;;;;;;;26.73;18.10;;;;;;;;;;4469477;32;20276;-87
2022/11/02 00:27:46;;;;;;;27.30;19.33;;;;;;;;;;4468849;32;20245;-87
2022/11/02 00:30:14;;;;;;;31.43;18.53;;;;;;;;;;4469239;32;20212;-88
2022/11/02 00:32:41;;;;;;;36.47;18.23;;;;;;;;;;4468839;32;20649;-87
2022/11/02 00:35:11;;;;;;;25.77;13.87;;;;;;;;;;4467830;32;20220;-87
2022/11/02 00:37:38;;;;;;;24.50;12.97;;;;;;;;;;4469033;32;20356;-87
2022/11/02 00:40:14;;;;;;;15.53;9.70;;;;;;;;;;4468785;32;20280;-87
2022/11/02 00:42:41;;;;;;;23.10;10.83;;;;;;;;;;4468664;32;20275;-88
2022/11/02 00:45:11;;;;;;;21.17;13.13;;;;;;;;;;4468787;32;20200;-87
2022/11/02 00:47:38;;;;;;;27.43;12.17;;;;;;;;;;4468694;32;20265;-87
2022/11/02 00:50:06;;;;;;;23.73;11.70;;;;;;;;;;4468699;32;20265;-87
2022/11/02 00:52:35;;;;;;;27.07;12.33;;;;;;;;;;4468685;32;20288;-87
2022/11/02 00:55:02;;;;;;;21.67;13.20;;;;;;;;;;4467351;32;20211;-88
2022/11/02 00:57:30;;;;;;;26.47;11.07;;;;;;;;;;4467448;32;20240;-88
2022/11/02 00:59:57;;;;;;;28.07;11.73;;;;;;;;;;4468508;32;20576;-87
2022/11/02 01:02:25;;;;;;;27.43;11.10;;;;;;;;;;4468508;32;20223;-87
2022/11/02 01:04:53;;;;;;;22.23;10.73;;;;;;;;;;4468979;32;20624;-87
2022/11/02 01:07:22;;;;;;;20.67;11.07;;;;;;;;;;4468405;32;20280;-87
2022/11/02 01:09:49;;;;;;;15.30;10.77;;;;;;;;;;4467137;32;20228;-87
2022/11/02 01:12:16;;;;;;;32.30;10.77;;;;;;;;;;4468264;32;20656;-88
2022/11/02 01:14:45;;;;;;;19.00;10.23;;;;;;;;;;4468891;32;20632;-87
2022/11/02 01:17:12;;;;;;;24.23;11.00;;;;;;;;;;4468700;32;20279;-87
2022/11/02 01:19:42;;;;;;;23.30;10.87;;;;;;;;;;4468242;32;20232;-87
2022/11/02 01:22:09;;;;;;;27.47;10.80;;;;;;;;;;4468811;32;20636;-87
2022/11/02 01:24:36;;;;;;;26.70;11.77;;;;;;;;;;4468222;32;20288;-87
2022/11/02 01:27:03;;;;;;;19.87;9.97;;;;;;;;;;4468168;32;20280;-87
2022/11/02 01:29:31;;;;;;;26.17;11.27;;;;;;;;;;4468255;32;20228;-88
2022/11/02 01:31:59;;;;;;;19.60;10.90;;;;;;;;;;4468195;32;20226;-88
2022/11/02 01:34:25;;;;;;;30.40;11.87;;;;;;;;;;4467023;32;20250;-87
2022/11/02 01:36:54;;;;;;;23.30;11.70;;;;;;;;;;4468361;32;20224;-88
2022/11/02 01:39:21;;;;;;;22.70;10.93;;;;;;;;;;4467126;32;20311;-87
2022/11/02 01:41:51;;;;;;;27.13;10.73;;;;;;;;;;4468101;32;20280;-87
2022/11/02 01:44:28;;;;;;;26.67;11.63;;;;;;;;;;4468313;32;20225;-87
2022/11/02 01:47:00;;;;;;;19.53;10.40;;;;;;;;;;4469120;32;20232;-87
2022/11/02 01:49:28;;;;;;;22.77;10.57;;;;;;;;;;4468194;32;20299;-87
2022/11/02 01:52:02;;;;;;;19.50;9.30;;;;;;;;;;4468908;32;20614;-87
2022/11/02 01:54:36;;;;;;;19.70;7.73;;;;;;;;;;4469005;32;20248;-88
2022/11/02 01:57:06;;;;;;;12.83;7.47;;;;;;;;;;4469397;32;20222;-88
2022/11/02 01:59:36;;;;;;;13.30;7.47;;;;;;;;;;4467140;32;20239;-87
2022/11/02 02:02:08;;;;;;;17.87;8.10;;;;;;;;;;4468652;32;20236;-87
2022/11/02 02:04:37;;;;;;;17.33;8.03;;;;;;;;;;4468234;32;20281;-87
2022/11/02 02:07:06;;;;;;;17.33;7.87;;;;;;;;;;4469087;32;20212;-87
2022/11/02 02:09:34;;;;;;;17.30;9.60;;;;;;;;;;4470950;32;20232;-87
2022/11/02 02:12:01;;;;;;;24.00;10.90;;;;;;;;;;4470963;32;20251;-87
2022/11/02 02:14:28;;;;;;;25.37;11.17;;;;;;;;;;4470868;32;20604;-87
2022/11/02 02:17:10;;;;;;;26.17;10.07;;;;;;;;;;4470871;32;20641;-87
2022/11/02 02:19:43;;;;;;;30.10;9.97;;;;;;;;;;4470982;32;20626;-87
2022/11/02 02:22:34;;;;;;;24.17;10.13;;;;;;;;;;4471078;32;20203;-87
2022/11/02 02:25:20;;;;;;;22.33;10.87;;;;;;;;;;4470771;32;20232;-87
2022/11/02 02:28:12;;;;;;;22.53;11.77;;;;;;;;;;4471007;32;20225;-88
2022/11/02 02:30:46;;;;;;;28.03;13.03;;;;;;;;;;4469711;32;20268;-87
2022/11/02 02:33:17;;;;;;;26.60;14.67;;;;;;;;;;4471153;32;20212;-88
2022/11/02 02:35:49;;;;;;;37.83;15.07;;;;;;;;;;4471171;32;20264;-87
2022/11/02 02:38:24;;;;;;;23.77;13.03;;;;;;;;;;4470848;32;20218;-88
2022/11/02 02:40:58;;;;;;;21.20;11.47;;;;;;;;;;4470596;32;20590;-87
2022/11/02 02:43:32;;;;;;;27.13;15.10;;;;;;;;;;4471056;32;20540;-87
2022/11/02 02:46:09;;;;;;;31.43;15.23;;;;;;;;;;4471154;32;20228;-87
2022/11/02 02:48:41;;;;;;;44.27;14.60;;;;;;;;;;4470772;32;20292;-88
2022/11/02 02:51:11;;;;;;;37.47;19.67;;;;;;;;;;4470996;32;20216;-87
2022/11/02 02:53:41;;;;;;;38.00;19.30;;;;;;;;;;4471006;32;20239;-88
2022/11/02 02:56:11;;;;;;;36.53;19.33;;;;;;;;;;4471247;32;20203;-88
2022/11/02 02:58:48;;;;;;;40.00;19.07;;;;;;;;;;4478979;32;20223;-88
2022/11/02 03:01:17;;;;;;;35.43;19.10;;;;;;;;;;4482179;32;20260;-88
2022/11/02 03:03:48;;;;;;;38.60;20.40;;;;;;;;;;4482608;32;20220;-89
2022/11/02 03:06:19;;;;;;;44.83;22.13;;;;;;;;;;4483021;32;20228;-88
2022/11/02 03:08:56;;;;;;;42.57;21.90;;;;;;;;;;4474380;32;20220;-88
2022/11/02 03:11:24;;;;;;;41.17;20.63;;;;;;;;;;4472165;32;20256;-88
2022/11/02 03:14:08;;;;;;;43.97;21.23;;;;;;;;;;4471729;32;20672;-87
2022/11/02 03:16:47;;;;;;;51.57;23.87;;;;;;;;;;4472856;32;20208;-87
2022/11/02 03:19:20;;;;;;;46.43;23.67;;;;;;;;;;4470503;32;20220;-87
2022/11/02 03:21:53;;;;;;;56.70;23.77;;;;;;;;;;4472392;32;20245;-87
2022/11/02 03:24:26;;;;;;;35.80;17.77;;;;;;;;;;4470430;32;20272;-87
2022/11/02 03:27:07;;;;;;;35.80;18.50;;;;;;;;;;4470215;32;20309;-87
2022/11/02 03:29:42;;;;;;;29.13;17.83;;;;;;;;;;4470136;32;20668;-87
2022/11/02 03:32:13;;;;;;;37.80;18.60;;;;;;;;;;4470267;32;20243;-88
2022/11/02 03:34:45;;;;;;;30.17;15.87;;;;;;;;;;4470043;32;20311;-87
2022/11/02 03:37:18;;;;;;;28.17;13.50;;;;;;;;;;4470383;32;20212;-87
2022/11/02 03:39:52;;;;;;;19.57;11.00;;;;;;;;;;4469804;32;20232;-87
2022/11/02 03:42:22;;;;;;;15.07;8.53;;;;;;;;;;4470231;32;20277;-87
2022/11/02 03:44:58;;;;;;;19.27;10.10;;;;;;;;;;4468623;32;20243;-87
2022/11/02 03:47:30;;;;;;;16.87;7.77;;;;;;;;;;4470147;32;20220;-87
2022/11/02 03:50:02;;;;;;;22.23;10.27;;;;;;;;;;4469434;32;20240;-87
2022/11/02 03:52:32;;;;;;;20.20;12.40;;;;;;;;;;4469947;32;20282;-87
2022/11/02 03:55:05;;;;;;;24.83;12.17;;;;;;;;;;4469682;32;20223;-87
2022/11/02 03:57:36;;;;;;;25.03;11.90;;;;;;;;;;4469871;32;20213;-87
2022/11/02 04:00:12;;;;;;;21.67;11.20;;;;;;;;;;4469300;32;20256;-87
2022/11/02 04:02:44;;;;;;;16.70;9.40;;;;;;;;;;4469730;32;20247;-87
2022/11/02 04:05:10;;;;;;;24.67;9.83;;;;;;;;;;4469267;32;20284;-87
2022/11/02 04:10:26;;;;;;;21.43;11.10;;;;;;;;;;4469188;32;20717;-87
2022/11/02 04:15:39;;;;;;;22.63;12.50;;;;;;;;;;4469478;32;20590;-87
2022/11/02 04:20:56;;;;;;;22.70;9.70;;;;;;;;;;4469367;32;20239;-88
2022/11/02 04:26:08;;;;;;;20.17;10.10;;;;;;;;;;4469067;32;20556;-87
2022/11/02 04:28:37;;;;;;;30.10;16.03;;;;;;;;;;4468883;32;20289;-87
2022/11/02 04:31:05;;;;;;;48.23;24.00;;;;;;;;;;4469011;32;20307;-87
2022/11/02 04:33:34;;;;;;;60.43;37.23;;;;;;;;;;4472211;32;20231;-87
2022/11/02 04:36:02;;;;;;;46.20;29.63;;;;;;;;;;4474939;32;20684;-87
2022/11/02 04:38:42;;;;;;;35.00;19.27;;;;;;;;;;4475536;32;20212;-87
2022/11/02 04:43:55;;;;;;;23.20;10.53;;;;;;;;;;4469231;32;20653;-87
2022/11/02 04:46:25;;;;;;;47.73;27.23;;;;;;;;;;4468120;32;20264;-87
2022/11/02 04:48:52;;;;;;;46.10;22.73;;;;;;;;;;4468751;32;20274;-87
2022/11/02 04:51:19;;;;;;;34.47;22.23;;;;;;;;;;4467726;32;20258;-87
2022/11/02 04:53:46;;;;;;;38.30;22.50;;;;;;;;;;4468995;32;20668;-87
2022/11/02 04:56:13;;;;;;;25.83;17.97;;;;;;;;;;4468531;32;20234;-87
2022/11/02 04:58:40;;;;;;;34.27;16.73;;;;;;;;;;4468989;32;20232;-87
2022/11/02 05:01:08;;;;;;;24.03;15.03;;;;;;;;;;4468465;32;20224;-87
2022/11/02 05:03:36;;;;;;;21.93;12.63;;;;;;;;;;4468463;32;20227;-87
2022/11/02 05:06:04;;;;;;;26.17;13.47;;;;;;;;;;4468490;32;20227;-87
2022/11/02 05:08:33;;;;;;;34.10;14.43;;;;;;;;;;4468422;32;20329;-87
2022/11/02 05:11:00;;;;;;;30.27;14.20;;;;;;;;;;4468382;32;20588;-87
2022/11/02 05:13:27;;;;;;;30.40;12.67;;;;;;;;;;4468449;32;20224;-87
2022/11/02 05:15:55;;;;;;;24.03;13.77;;;;;;;;;;4468371;32;20302;-87
2022/11/02 05:18:25;;;;;;;27.70;14.27;;;;;;;;;;4468920;32;20672;-87
2022/11/02 05:20:57;;;;;;;33.77;16.83;;;;;;;;;;4468294;32;20592;-87
2022/11/02 05:23:25;;;;;;;49.40;20.33;;;;;;;;;;4468935;32;20343;-87
2022/11/02 05:25:56;;;;;;;40.70;20.27;;;;;;;;;;4468471;32;20231;-87
2022/11/02 05:28:24;;;;;;;60.50;27.80;;;;;;;;;;4468218;32;20216;-87
2022/11/02 05:30:51;;;;;;;52.70;27.13;;;;;;;;;;4468042;32;20579;-87
2022/11/02 05:33:18;;;;;;;53.07;30.60;;;;;;;;;;4468008;32;20212;-87
2022/11/02 05:35:46;;;;;;;65.97;34.00;;;;;;;;;;4468370;32;20231;-87
2022/11/02 05:38:15;;;;;;;52.23;26.57;;;;;;;;;;4467880;32;20224;-87
2022/11/02 05:40:42;;;;;;;47.97;22.93;;;;;;;;;;4467428;32;20300;-86
2022/11/02 05:43:12;;;;;;;38.77;20.97;;;;;;;;;;4471051;32;20228;-87
2022/11/02 05:45:43;;;;;;;42.20;26.87;;;;;;;;;;4471243;32;20228;-87
2022/11/02 05:48:10;;;;;;;62.90;28.17;;;;;;;;;;4471614;32;20300;-87
2022/11/02 05:50:38;;;;;;;68.83;28.80;;;;;;;;;;4471642;32;20664;-87
2022/11/02 05:53:08;;;;;;;64.87;26.70;;;;;;;;;;4470194;32;20279;-87
2022/11/02 05:55:36;;;;;;;38.30;20.47;;;;;;;;;;4471358;32;20305;-87
2022/11/02 05:58:03;;;;;;;38.33;20.67;;;;;;;;;;4469544;32;20706;-87
2022/11/02 06:00:33;;;;;;;44.43;21.80;;;;;;;;;;4470640;32;20235;-88
2022/11/02 06:03:00;;;;;;;41.57;19.83;;;;;;;;;;4471386;32;20260;-90
2022/11/02 06:05:27;;;;;;;33.17;18.40;;;;;;;;;;4470195;32;20257;-87
2022/11/02 06:07:58;;;;;;;35.80;18.80;;;;;;;;;;4469089;32;20231;-87
2022/11/02 06:10:26;;;;;;;25.03;15.80;;;;;;;;;;4469973;32;20318;-87
2022/11/02 06:13:00;;;;;;;39.03;18.27;;;;;;;;;;4470422;32;20239;-88
2022/11/02 06:15:27;;;;;;;41.83;19.63;;;;;;;;;;4471444;32;20232;-88
2022/11/02 06:17:54;;;;;;;40.23;22.20;;;;;;;;;;4469156;32;20300;-90
2022/11/02 06:20:22;;;;;;;41.63;25.17;;;;;;;;;;4470223;32;20254;-87
2022/11/02 06:22:49;;;;;;;47.50;22.60;;;;;;;;;;4470142;32;20236;-87
2022/11/02 06:25:18;;;;;;;37.40;21.77;;;;;;;;;;4470801;32;20227;-87
2022/11/02 06:27:51;;;;;;;41.70;22.93;;;;;;;;;;4469798;32;20723;-87
2022/11/02 06:30:23;;;;;;;58.97;24.50;;;;;;;;;;4471175;32;20327;-89
2022/11/02 06:32:51;;;;;;;55.87;24.37;;;;;;;;;;4470536;32;20278;-89
2022/11/02 06:35:21;;;;;;;47.83;23.37;;;;;;;;;;4469089;32;20658;-89
2022/11/02 06:37:49;;;;;;;50.73;20.13;;;;;;;;;;4470409;32;20227;-87
2022/11/02 06:40:19;;;;;;;46.60;22.00;;;;;;;;;;4472078;32;20219;-89
2022/11/02 06:42:45;;;;;;;47.77;22.60;;;;;;;;;;4471338;32;20315;-87
2022/11/02 06:45:13;;;;;;;61.27;25.23;;;;;;;;;;4470675;32;20234;-87
2022/11/02 06:47:41;;;;;;;48.27;23.07;;;;;;;;;;4469747;32;20640;-87
2022/11/02 06:50:10;;;;;;;37.53;18.97;;;;;;;;;;4470887;32;20267;-87
2022/11/02 06:52:42;;;;;;;41.07;19.63;;;;;;;;;;4469280;32;20220;-87
2022/11/02 06:55:09;;;;;;;44.10;20.20;;;;;;;;;;4470568;32;20230;-88
2022/11/02 06:57:37;;;;;;;35.93;18.37;;;;;;;;;;4470223;32;20266;-88
2022/11/02 07:00:04;;;;;;;36.67;19.93;;;;;;;;;;4470921;32;20303;-88
2022/11/02 07:02:33;;;;;;;43.23;17.60;;;;;;;;;;4470556;32;20243;-88
2022/11/02 07:05:02;;;;;;;35.77;16.60;;;;;;;;;;4470927;32;20216;-88
2022/11/02 07:07:29;;;;;;;37.10;18.30;;;;;;;;;;4472035;32;20246;-88
2022/11/02 07:09:56;;;;;;;39.57;18.07;;;;;;;;;;4471392;32;20216;-87
2022/11/02 07:12:32;;;;;;;28.23;15.60;;;;;;;;;;4469425;32;20236;-87
2022/11/02 07:14:59;;;;;;;39.60;16.83;;;;;;;;;;4469553;32;20215;-88
2022/11/02 07:17:26;;;;;;;40.67;14.93;;;;;;;;;;4469703;32;20296;-87
2022/11/02 07:19:53;;;;;;;34.60;15.63;;;;;;;;;;4471709;32;20629;-88
2022/11/02 07:22:21;;;;;;;37.00;15.43;;;;;;;;;;4470647;32;20295;-87
2022/11/02 07:24:48;;;;;;;39.43;15.20;;;;;;;;;;4469899;32;20612;-88
2022/11/02 07:27:16;;;;;;;35.93;16.60;;;;;;;;;;4469647;32;20671;-87
2022/11/02 07:29:43;;;;;;;31.37;16.47;;;;;;;;;;4469385;32;20238;-88
2022/11/02 07:32:10;;;;;;;45.13;17.30;;;;;;;;;;4468921;32;20228;-88
2022/11/02 07:34:37;;;;;;;36.97;15.83;;;;;;;;;;4469132;32;20644;-88
2022/11/02 07:37:04;;;;;;;33.47;17.27;;;;;;;;;;4469239;32;20254;-87
2022/11/02 07:39:32;;;;;;;41.80;16.37;;;;;;;;;;4469163;32;20243;-88
2022/11/02 07:41:59;;;;;;;48.43;17.20;;;;;;;;;;4469252;32;20239;-87
2022/11/02 07:44:26;;;;;;;35.60;18.73;;;;;;;;;;4469501;32;20244;-87
2022/11/02 07:46:53;;;;;;;42.10;20.27;;;;;;;;;;4469623;32;20246;-87
2022/11/02 07:49:20;;;;;;;38.73;17.73;;;;;;;;;;4469242;32;20232;-88
2022/11/02 07:51:47;;;;;;;31.50;11.67;;;;;;;;;;4468937;32;20248;-88
2022/11/02 07:54:14;;;;;;;43.67;12.93;;;;;;;;;;4469150;32;20208;-87
2022/11/02 07:56:42;;;;;;;28.33;11.93;;;;;;;;;;4468779;32;20236;-88
2022/11/02 07:59:13;;;;;;;34.00;13.90;;;;;;;;;;4470719;32;20216;-89
2022/11/02 08:01:40;;;;;;;26.50;10.37;;;;;;;;;;4468643;32;20254;-87
2022/11/02 08:04:09;;;;;;;26.77;11.60;;;;;;;;;;4469152;32;20220;-88
2022/11/02 08:06:36;;;;;;;26.20;11.37;;;;;;;;;;4469016;32;20354;-87
2022/11/02 08:09:03;;;;;;;25.47;11.80;;;;;;;;;;4468473;32;20220;-88
2022/11/02 08:11:30;;;;;;;33.07;12.50;;;;;;;;;;4468682;32;20228;-87
2022/11/02 08:14:01;;;;;;;23.17;11.20;;;;;;;;;;4467487;32;20238;-87
2022/11/02 08:16:28;;;;;;;24.50;12.10;;;;;;;;;;4468407;32;20247;-89
2022/11/02 08:18:57;;;;;;;17.20;9.70;;;;;;;;;;4468993;32;20224;-87
2022/11/02 08:21:27;;;;;;;17.37;10.17;;;;;;;;;;4468890;32;20236;-89
2022/11/02 08:23:54;;;;;;;31.37;11.43;;;;;;;;;;4467897;32;20325;-88
2022/11/02 08:26:23;;;;;;;22.07;10.67;;;;;;;;;;4469331;32;20288;-89
2022/11/02 08:28:49;;;;;;;23.17;11.47;;;;;;;;;;4469255;32;20256;-88
2022/11/02 08:31:18;;;;;;;21.53;12.50;;;;;;;;;;4469705;32;20295;-89
2022/11/02 08:33:45;;;;;;;20.33;10.90;;;;;;;;;;4469922;32;20224;-89
2022/11/02 08:36:15;;;;;;;30.23;13.10;;;;;;;;;;4471231;32;20235;-88
2022/11/02 08:38:42;;;;;;;39.03;12.30;;;;;;;;;;4468930;32;20644;-89
2022/11/02 08:41:08;;;;;;;20.08;11.50;;;;;;;;;;4469597;32;20261;-89
2022/11/02 08:43:36;;;;;;;22.03;12.03;;;;;;;;;;4468599;32;20279;-89
2022/11/02 08:46:03;;;;;;;26.97;12.77;;;;;;;;;;4468356;32;20390;-89
2022/11/02 08:48:32;;;;;;;19.80;12.80;;;;;;;;;;4467780;32;20236;-89
2022/11/02 08:50:59;;;;;;;25.37;13.60;;;;;;;;;;4467916;32;20273;-88
2022/11/02 08:53:26;;;;;;;28.85;12.18;;;;;;;;;;4467650;32;20260;-88
2022/11/02 08:55:53;;;;;;;25.47;11.20;;;;;;;;;;4467893;32;20231;-88
2022/11/02 08:58:20;;;;;;;23.33;10.00;;;;;;;;;;4468650;32;20533;-89
2022/11/02 09:00:47;;;;;;;16.43;9.77;;;;;;;;;;4468257;32;20227;-88
2022/11/02 09:03:15;;;;;;;24.20;12.20;;;;;;;;;;4468221;32;20208;-90
2022/11/02 09:05:45;;;;;;;23.20;8.88;;;;;;;;;;4468802;32;20250;-89
2022/11/02 09:08:15;;;;;;;25.10;8.13;;;;;;;;;;4471263;32;20220;-90
2022/11/02 09:10:45;;;;;;;24.20;9.05;;;;;;;;;;4468609;32;20599;-86
2022/11/02 09:13:17;;;;;;;31.35;11.05;;;;;;;;;;4469616;32;20216;-89
2022/11/02 09:15:44;;;;;;;41.08;11.15;;;;;;;;;;4468305;32;20224;-87
2022/11/02 09:18:11;;;;;;;20.75;9.00;;;;;;;;;;4467991;32;20211;-89
2022/11/02 09:20:39;;;;;;;20.05;9.35;;;;;;;;;;4468022;32;20733;-89
2022/11/02 09:23:07;;;;;;;29.55;9.07;;;;;;;;;;4466976;32;20302;-89
2022/11/02 09:25:34;;;;;;;20.67;9.52;;;;;;;;;;4468418;32;20236;-90
2022/11/02 09:28:03;;;;;;;17.67;8.43;;;;;;;;;;4468129;32;20212;-86
2022/11/02 09:30:30;;;;;;;20.08;9.52;;;;;;;;;;4468357;32;20358;-89
2022/11/02 09:32:58;;;;;;;23.83;9.85;;;;;;;;;;4468069;32;20220;-88
2022/11/02 09:35:27;;;;;;;19.92;9.40;;;;;;;;;;4468218;32;20213;-88
2022/11/02 09:37:59;;;;;;;18.58;9.32;;;;;;;;;;4467886;32;20245;-89
2022/11/02 09:40:35;;;;;;;22.33;9.75;;;;;;;;;;4468001;32;20224;-88
2022/11/02 09:43:10;;;;;;;25.37;7.55;;;;;;;;;;4467623;32;20280;-87
2022/11/02 09:45:51;;;;;;;21.08;9.75;;;;;;;;;;4469626;32;20229;-89
2022/11/02 09:48:22;;;;;;;21.73;9.73;;;;;;;;;;4467779;32;20224;-86
2022/11/02 09:50:57;;;;;;;22.92;9.13;;;;;;;;;;4468561;32;20264;-89
2022/11/02 09:53:30;;;;;;;25.62;9.10;;;;;;;;;;4467864;32;20233;-87
2022/11/02 09:56:02;;;;;;;22.23;9.25;;;;;;;;;;4467787;32;20211;-87
2022/11/02 09:58:34;;;;;;;26.05;8.63;;;;;;;;;;4468126;32;20264;-88
2022/11/02 10:01:13;;;;;;;32.75;11.25;;;;;;;;;;4468062;32;20280;-88
2022/11/02 10:03:56;;;;;;;45.80;18.48;;;;;;;;;;4467744;32;20235;-88
2022/11/02 10:06:25;;;;;;;72.32;40.63;;;;;;;;;;4468941;32;20208;-88
2022/11/02 10:09:04;;;;;;;28.45;13.98;;;;;;;;;;4469634;32;20224;-87
2022/11/02 10:11:43;;;;;;;34.10;12.57;;;;;;;;;;4469777;32;20222;-87
2022/11/02 10:14:14;;;;;;;29.73;9.52;;;;;;;;;;4474165;32;20272;-88
2022/11/02 10:16:51;;;;;;;23.65;9.77;;;;;;;;;;4478770;32;20216;-87
2022/11/02 10:19:20;;;;;;;17.62;8.82;;;;;;;;;;4478153;32;20265;-87
2022/11/02 10:21:49;;;;;;;28.90;8.00;;;;;;;;;;4480022;32;20309;-87
2022/11/02 10:24:24;;;;;;;23.65;8.60;;;;;;;;;;4474524;32;20216;-88
2022/11/02 10:26:56;;;;;;;22.62;8.15;;;;;;;;;;4472358;32;20203;-87
2022/11/02 10:29:37;;;;;;;24.25;9.15;;;;;;;;;;4473261;32;20292;-88
2022/11/02 10:32:05;;;;;;;18.52;8.20;;;;;;;;;;4472942;32;20203;-88
2022/11/02 10:34:36;;;;;;;28.48;8.68;;;;;;;;;;4471557;32;20335;-89
2022/11/02 10:37:26;;;;;;;22.02;9.88;;;;;;;;;;4471430;32;20303;-90
2022/11/02 10:40:08;;;;;;;23.25;10.80;;;;;;;;;;4470547;32;20251;-89
2022/11/02 10:42:49;;;;;;;23.95;10.85;;;;;;;;;;4470567;32;20225;-89
2022/11/02 10:45:58;;;;;;;24.40;9.93;;;;;;;;;;4470526;32;20215;-89
2022/11/02 10:48:36;;;;;;;25.95;10.55;;;;;;;;;;4470083;32;20280;-89
2022/11/02 10:51:09;;;;;;;24.42;11.27;;;;;;;;;;4470508;32;20273;-88
2022/11/02 10:53:40;;;;;;;27.08;10.55;;;;;;;;;;4471787;32;20216;-89
2022/11/02 10:56:15;;;;;;;32.05;11.85;;;;;;;;;;4470056;32;20290;-88
2022/11/02 10:58:46;;;;;;;32.00;11.85;;;;;;;;;;4470272;32;20670;-88
2022/11/02 11:01:14;;;;;;;20.30;10.95;;;;;;;;;;4471766;32;20224;-87
2022/11/02 11:03:55;;;;;;;31.60;13.65;;;;;;;;;;4470524;32;20212;-88
2022/11/02 11:06:24;;;;;;;35.08;13.00;;;;;;;;;;4470121;32;20231;-87
2022/11/02 11:08:52;;;;;;;28.17;13.10;;;;;;;;;;4470586;32;20253;-87
2022/11/02 11:11:22;;;;;;;21.20;11.73;;;;;;;;;;4470078;32;20244;-86
2022/11/02 11:14:03;;;;;;;32.25;11.50;;;;;;;;;;4469542;32;20216;-87
2022/11/02 11:16:42;;;;;;;29.37;12.15;;;;;;;;;;4469930;32;20220;-86
2022/11/02 11:19:34;;;;;;;23.15;11.18;;;;;;;;;;4469662;32;20218;-87
2022/11/02 11:22:02;;;;;;;22.55;12.27;;;;;;;;;;4469186;32;20579;-85
2022/11/02 11:24:31;;;;;;;25.05;11.48;;;;;;;;;;4468652;32;20265;-87
2022/11/02 11:27:18;;;;;;;21.80;10.18;;;;;;;;;;4469263;32;20658;-87
2022/11/02 11:29:53;;;;;;;27.20;12.52;;;;;;;;;;4468327;32;20232;-86
2022/11/02 11:32:24;;;;;;;29.87;12.48;;;;;;;;;;4469770;32;20219;-86
2022/11/02 11:34:56;;;;;;;22.40;11.70;;;;;;;;;;4468387;32;20208;-86
2022/11/02 11:37:25;;;;;;;29.33;11.90;;;;;;;;;;4469385;32;20219;-86
2022/11/02 11:39:56;;;;;;;25.65;12.30;;;;;;;;;;4468699;32;20209;-86
2022/11/02 11:42:26;;;;;;;25.90;10.40;;;;;;;;;;4469125;32;20258;-86
2022/11/02 11:45:04;;;;;;;32.47;11.77;;;;;;;;;;4469565;32;20208;-86
2022/11/02 11:47:34;;;;;;;27.55;12.02;;;;;;;;;;4468853;32;20220;-86
2022/11/02 11:50:03;;;;;;;23.20;10.57;;;;;;;;;;4468925;32;20232;-86
2022/11/02 11:52:32;;;;;;;28.02;11.12;;;;;;;;;;4469608;32;20224;-86
2022/11/02 11:55:00;;;;;;;33.17;10.77;;;;;;;;;;4469206;32;20223;-88
2022/11/02 11:57:30;;;;;;;24.77;9.98;;;;;;;;;;4469754;32;20306;-88
2022/11/02 12:00:00;;;;;;;20.25;9.82;;;;;;;;;;4468848;32;20735;-87
2022/11/02 12:02:31;;;;;;;29.02;10.18;;;;;;;;;;4467675;32;20810;-87
2022/11/02 12:05:04;;;;;;;25.10;9.88;;;;;;;;;;4469389;32;20208;-87
2022/11/02 12:08:10;;;;;;;25.02;9.95;;;;;;;;;;4469115;32;20676;-86
2022/11/02 12:10:48;;;;;;;32.65;10.55;;;;;;;;;;4469143;32;20270;-87
2022/11/02 12:13:39;;;;;;;27.67;11.77;;;;;;;;;;4469469;32;20232;-87
2022/11/02 12:16:15;;;;;;;23.83;9.63;;;;;;;;;;4469598;32;20211;-86
2022/11/02 12:18:55;;;;;;;33.60;9.63;;;;;;;;;;4469657;32;20207;-87
2022/11/02 12:21:43;;;;;;;23.75;7.60;;;;;;;;;;4470355;32;20226;-86
2022/11/02 12:24:40;;;;;;;20.40;8.25;;;;;;;;;;4469751;32;20260;-87
2022/11/02 12:27:18;;;;;;;22.35;7.72;;;;;;;;;;4466473;32;20680;-86
2022/11/02 12:30:13;;;;;;;23.60;7.47;;;;;;;;;;4469250;32;20208;-85
2022/11/02 12:33:20;;;;;;;23.85;8.30;;;;;;;;;;4468386;32;20299;-87
2022/11/02 12:36:07;;;;;;;27.65;9.98;;;;;;;;;;4453169;32;20240;-86
2022/11/02 12:38:51;;;;;;;25.00;7.22;;;;;;;;;;4466346;32;20281;-86
2022/11/02 12:41:31;;;;;;;20.92;6.47;;;;;;;;;;4469006;32;20297;-87
2022/11/02 12:44:06;;;;;;;17.27;6.85;;;;;;;;;;4468696;32;20300;-87
2022/11/02 12:46:41;;;;;;;14.75;6.87;;;;;;;;;;4468927;32;20260;-86
2022/11/02 12:49:24;;;;;;;22.92;7.45;;;;;;;;;;4468346;32;20235;-86
2022/11/02 12:51:58;;;;;;;20.20;6.90;;;;;;;;;;4468333;32;20656;-86
2022/11/02 12:54:30;;;;;;;20.98;7.22;;;;;;;;;;4468653;32;20264;-87
2022/11/02 12:56:57;;;;;;;17.92;7.40;;;;;;;;;;4468557;32;20299;-86
2022/11/02 12:59:27;;;;;;;28.80;8.48;;;;;;;;;;4468868;32;20212;-86
2022/11/02 13:02:02;;;;;;;18.20;7.57;;;;;;;;;;4468633;32;20232;-86
2022/11/02 13:04:43;;;;;;;28.10;8.02;;;;;;;;;;4468741;32;20244;-86
2022/11/02 13:07:14;;;;;;;22.23;7.55;;;;;;;;;;4468537;32;20220;-86
2022/11/02 13:09:47;;;;;;;25.67;8.43;;;;;;;;;;4468579;32;20550;-87
2022/11/02 13:12:17;;;;;;;28.73;7.85;;;;;;;;;;4468430;32;20219;-86
2022/11/02 13:14:49;;;;;;;23.05;7.60;;;;;;;;;;4468128;32;20602;-87
2022/11/02 13:17:22;;;;;;;27.70;8.48;;;;;;;;;;4467000;32;20232;-86
2022/11/02 13:19:54;;;;;;;20.88;8.02;;;;;;;;;;4468484;32;20216;-86
2022/11/02 13:22:31;;;;;;;22.80;8.07;;;;;;;;;;4468536;32;20227;-86
2022/11/02 13:25:12;;;;;;;19.27;7.45;;;;;;;;;;4468343;32;20211;-86
2022/11/02 13:27:48;;;;;;;17.92;8.18;;;;;;;;;;4468877;32;20220;-86
2022/11/02 13:30:17;;;;;;;15.93;8.02;;;;;;;;;;4471614;32;20268;-87
2022/11/02 13:32:47;;;;;;;21.40;7.25;;;;;;;;;;4470464;32;20271;-87
2022/11/02 13:35:20;;;;;;;25.62;9.23;;;;;;;;;;4469077;32;20208;-86
2022/11/02 13:37:54;;;;;;;45.78;9.52;;;;;;;;;;4468276;32;20235;-86
2022/11/02 13:40:24;;;;;;;21.45;9.15;;;;;;;;;;4468228;32;20200;-86
2022/11/02 13:43:18;;;;;;;35.67;9.40;;;;;;;;;;4468223;32;20228;-86
2022/11/02 13:46:02;;;;;;;20.45;9.73;;;;;;;;;;4468585;32;20216;-86
2022/11/02 13:48:47;;;;;;;26.55;10.40;;;;;;;;;;4467979;32;20228;-86
2022/11/02 13:51:26;;;;;;;30.95;10.82;;;;;;;;;;4466029;32;20207;-87
2022/11/02 13:53:57;;;;;;;29.75;10.73;;;;;;;;;;4468261;32;20234;-86
2022/11/02 13:56:28;;;;;;;27.85;11.00;;;;;;;;;;4468429;32;20200;-86
2022/11/02 13:59:01;;;;;;;35.03;11.55;;;;;;;;;;4468541;32;20248;-86
2022/11/02 14:01:31;;;;;;;45.08;11.05;;;;;;;;;;4468014;32;20666;-87
2022/11/02 14:04:04;;;;;;;27.85;12.95;;;;;;;;;;4470224;32;20708;-86
2022/11/02 14:06:54;;;;;;;32.72;11.50;;;;;;;;;;4471482;32;20358;-86
2022/11/02 14:09:30;;;;;;;26.25;11.05;;;;;;;;;;4471383;32;20644;-87
2022/11/02 14:12:29;;;;;;;27.95;11.88;;;;;;;;;;4471418;32;20234;-87
2022/11/02 14:15:47;;;;;;;37.83;13.62;;;;;;;;;;4471525;32;20244;-87
2022/11/02 14:18:30;;;;;;;39.72;15.10;;;;;;;;;;4444781;32;20228;-87
2022/11/02 14:20:58;;;;;;;37.03;13.62;;;;;;;;;;4469792;32;20232;-87
2022/11/02 14:23:37;;;;;;;41.17;13.65;;;;;;;;;;4471382;32;20224;-87
2022/11/02 14:26:05;;;;;;;35.13;12.88;;;;;;;;;;4471241;32;20280;-87
2022/11/02 14:28:34;;;;;;;40.85;13.13;;;;;;;;;;4470683;32;20576;-87
2022/11/02 14:31:44;;;;;;;38.55;14.18;;;;;;;;;;4469575;32;20216;-87
2022/11/02 14:34:44;;;;;;;40.12;14.80;;;;;;;;;;4470956;32;20242;-86
2022/11/02 14:37:31;;;;;;;41.88;15.13;;;;;;;;;;4470683;32;20663;-86
2022/11/02 14:40:15;;;;;;;44.88;15.77;;;;;;;;;;4471056;32;20754;-86
2022/11/02 14:43:02;;;;;;;32.42;15.30;;;;;;;;;;4470608;32;20284;-86
2022/11/02 14:45:42;;;;;;;31.67;13.65;;;;;;;;;;4470363;32;20610;-86
2022/11/02 14:48:15;;;;;;;31.08;12.98;;;;;;;;;;4470961;32;20263;-87
2022/11/02 14:50:59;;;;;;;60.55;16.70;;;;;;;;;;4470079;32;20260;-86
2022/11/02 14:53:29;;;;;;;43.90;17.87;;;;;;;;;;4470429;32;20272;-87
2022/11/02 14:55:57;;;;;;;55.17;21.58;;;;;;;;;;4470797;32;20226;-88
2022/11/02 14:58:35;;;;;;;44.20;19.65;;;;;;;;;;4470117;32;20308;-88
2022/11/02 15:01:05;;;;;;;46.90;16.25;;;;;;;;;;4470925;32;20204;-87
2022/11/02 15:03:37;;;;;;;42.80;16.20;;;;;;;;;;4470895;32;20232;-87